Aviation Digital Data Service (ADDS)

Output produced by METARs form (1929 UTC 27 May 2017)
found at http://aviationweather.gov/adds/metars/
 
KMIV 271913Z 2719/2818 27006KT P6SM SCT040 BKN080 
     TEMPO 2719/2722 -SHRA BKN040 
     FM280000 VRB02KT P6SM BKN250 
     FM281200 09004KT P6SM BKN035 
     FM281700 12009KT P6SM BKN035